Time;durP1;ratioP1;P1;durP2;ratioP2;P2;SDS_P1;SDS_P2;PMS_P1;PMS_P2;Temp;Humidity;BMP_temperature;BMP_pressure;BME280_temperature;BME280_humidity;BME280_pressure;Samples;Min_cycle;Max_cycle;Signal;HPM_P1;HPM_P2
2022/03/25 00:01:31;;;;;;;;;59.50;41.25;;;;;14.64;30.79;102335.97;5099203;27;45456;-53
2022/03/25 00:03:57;;;;;;;;;52.25;38.75;;;;;14.63;30.65;102341.47;5099032;27;45386;-52
2022/03/25 00:06:23;;;;;;;;;56.75;41.00;;;;;14.60;30.53;102345.25;5098795;27;47162;-54
2022/03/25 00:08:48;;;;;;;;;54.00;42.25;;;;;14.53;30.83;102325.34;5098687;27;45253;-50
2022/03/25 00:11:14;;;;;;;;;65.50;42.25;;;;;14.57;30.78;102336.66;5098327;27;45362;-50
2022/03/25 00:13:40;;;;;;;;;59.50;40.25;;;;;14.53;30.79;102333.38;5099014;27;45502;-55
2022/03/25 00:16:07;;;;;;;;;54.75;45.00;;;;;14.52;30.71;102331.69;5098981;27;45319;-54
2022/03/25 00:18:33;;;;;;;;;64.25;44.50;;;;;14.44;30.90;102326.13;5098811;27;45315;-52
2022/03/25 00:20:59;;;;;;;;;59.00;45.00;;;;;14.51;30.70;102340.72;5098141;27;45296;-53
2022/03/25 00:23:25;;;;;;;;;49.00;40.00;;;;;14.48;30.83;102336.47;5098747;27;45523;-55
2022/03/25 00:25:50;;;;;;;;;57.00;43.00;;;;;14.49;30.89;102339.97;5097852;27;46046;-52
2022/03/25 00:28:16;;;;;;;;;57.50;43.25;;;;;14.46;30.89;102332.22;5098667;27;45365;-55
2022/03/25 00:30:43;;;;;;;;;56.00;42.25;;;;;14.46;30.65;102334.88;5098416;27;45436;-53
2022/03/25 00:33:09;;;;;;;;;56.00;40.00;;;;;14.44;30.91;102336.84;5098574;27;45495;-52
2022/03/25 00:35:34;;;;;;;;;56.75;41.25;;;;;14.44;31.14;102339.50;5097893;27;46074;-50
2022/03/25 00:38:00;;;;;;;;;60.25;47.00;;;;;14.44;30.78;102337.69;5098373;27;45326;-51
2022/03/25 00:40:26;;;;;;;;;55.75;43.75;;;;;14.44;31.51;102334.16;5098674;27;45327;-56
2022/03/25 00:42:51;;;;;;;;;56.00;44.50;;;;;14.42;30.83;102339.66;5098509;27;45326;-51
2022/03/25 00:45:17;;;;;;;;;54.25;41.50;;;;;14.41;31.19;102343.31;5098318;27;46018;-52
2022/03/25 00:47:43;;;;;;;;;55.25;39.75;;;;;14.35;31.53;102330.44;5098267;27;45268;-52
2022/03/25 00:50:08;;;;;;;;;58.00;45.00;;;;;14.33;30.76;102332.44;5098236;27;45249;-49
2022/03/25 00:52:34;;;;;;;;;57.50;45.00;;;;;13.94;31.05;102272.44;5098107;27;45443;-52
2022/03/25 00:55:00;;;;;;;;;40.25;33.50;;;;;14.27;31.42;102334.75;5097011;27;45298;-53
2022/03/25 00:57:25;;;;;;;;;55.25;41.75;;;;;14.27;31.43;102340.97;5097839;27;45341;-51
2022/03/25 00:59:51;;;;;;;;;59.25;44.50;;;;;14.23;31.39;102335.03;5098237;27;45375;-53
2022/03/25 01:02:16;;;;;;;;;60.00;43.25;;;;;14.21;31.60;102334.31;5098205;27;45498;-54
2022/03/25 01:04:42;;;;;;;;;64.25;44.50;;;;;14.19;31.66;102338.09;5097580;27;46198;-52
2022/03/25 01:07:07;;;;;;;;;59.75;41.25;;;;;14.16;31.27;102338.38;5097202;27;45449;-51
2022/03/25 01:09:33;;;;;;;;;58.25;42.75;;;;;14.17;31.49;102338.25;5096969;27;45873;-55
2022/03/25 01:11:58;;;;;;;;;57.50;45.25;;;;;14.15;31.63;102334.81;5098041;27;45514;-51
2022/03/25 01:14:23;;;;;;;;;61.75;44.75;;;;;14.12;31.57;102339.63;5097472;27;46111;-48
2022/03/25 01:16:49;;;;;;;;;49.50;36.25;;;;;14.10;31.76;102336.22;5097435;27;45362;-52
2022/03/25 01:19:15;;;;;;;;;61.25;41.75;;;;;14.06;31.45;102330.28;5097682;27;45401;-52
2022/03/25 01:21:40;;;;;;;;;59.00;44.00;;;;;14.05;32.06;102325.91;5097720;27;45836;-52
2022/03/25 01:24:06;;;;;;;;;56.50;42.00;;;;;14.02;32.07;102328.84;5097616;27;45352;-52
2022/03/25 01:26:32;;;;;;;;;60.00;44.50;;;;;14.00;31.95;102325.44;5097257;27;45853;-54
2022/03/25 01:28:58;;;;;;;;;62.75;42.25;;;;;13.98;31.75;102322.03;5097677;27;45234;-54
2022/03/25 01:31:24;;;;;;;;;56.25;43.25;;;;;13.98;32.11;102322.03;5097732;27;45368;-52
2022/03/25 01:33:49;;;;;;;;;60.00;42.50;;;;;13.96;32.16;102319.50;5096897;27;45189;-55
2022/03/25 01:36:15;;;;;;;;;57.25;45.75;;;;;13.59;31.75;102259.41;5097275;27;45346;-56
2022/03/25 01:38:41;;;;;;;;;52.50;42.25;;;;;13.84;31.84;102298.31;5097212;27;45474;-50
2022/03/25 01:41:07;;;;;;;;;58.00;38.50;;;;;13.85;31.94;102300.84;5097417;27;45633;-52
2022/03/25 01:43:33;;;;;;;;;59.50;43.50;;;;;13.89;32.02;102309.44;5096552;27;45339;-53
2022/03/25 01:45:59;;;;;;;;;64.25;42.00;;;;;13.85;32.14;102308.84;5097051;27;45366;-51
2022/03/25 01:48:25;;;;;;;;;64.25;46.00;;;;;13.81;31.95;102293.19;5097037;27;45368;-51
2022/03/25 01:50:51;;;;;;;;;62.00;44.25;;;;;13.80;32.04;102297.72;5097009;27;45359;-51
2022/03/25 01:53:21;;;;;;;;;63.75;45.00;;;;;13.84;32.56;102306.31;5097507;27;45398;-54
2022/03/25 01:55:52;;;;;;;;;62.75;42.25;;;;;13.83;32.30;102318.00;5097336;27;45446;-53
2022/03/25 01:58:18;;;;;;;;;56.50;44.00;;;;;13.79;32.46;102312.06;5097408;27;45239;-53
2022/03/25 02:00:44;;;;;;;;;59.75;45.25;;;;;13.76;32.55;102311.47;5097421;27;45399;-55
2022/03/25 02:03:10;;;;;;;;;63.50;43.00;;;;;13.79;32.80;102305.88;5097954;27;46284;-49
2022/03/25 02:05:35;;;;;;;;;60.50;48.50;;;;;13.77;32.20;102307.81;5097043;27;45433;-52
2022/03/25 02:08:02;;;;;;;;;60.25;45.25;;;;;13.76;32.90;102317.66;5096914;27;45698;-53
2022/03/25 02:10:28;;;;;;;;;58.75;42.00;;;;;13.72;32.08;102316.22;5097555;27;45654;-52
2022/03/25 02:12:54;;;;;;;;;56.25;43.00;;;;;13.71;31.98;102312.72;5096913;27;45383;-52
2022/03/25 02:15:30;;;;;;;;;59.25;45.25;;;;;13.70;32.57;102305.66;5097263;27;45356;-52
2022/03/25 02:17:56;;;;;;;;;58.25;44.50;;;;;13.64;32.62;102300.81;5096050;27;45395;-56
2022/03/25 02:20:22;;;;;;;;;61.00;44.25;;;;;13.64;32.66;102306.16;5097091;27;45481;-55
2022/03/25 02:22:47;;;;;;;;;61.50;46.00;;;;;13.66;32.39;102314.09;5096677;27;45593;-55
2022/03/25 02:25:14;;;;;;;;;63.75;45.25;;;;;13.64;32.59;102311.50;5096768;27;45502;-54
2022/03/25 02:27:40;;;;;;;;;60.00;44.75;;;;;13.63;32.58;102312.50;5096893;27;45332;-56
2022/03/25 02:30:07;;;;;;;;;64.75;44.75;;;;;13.60;32.40;102307.41;5097211;27;45530;-54
2022/03/25 02:32:33;;;;;;;;;61.50;46.50;;;;;13.58;32.58;102308.53;5096733;27;46222;-56
2022/03/25 02:34:59;;;;;;;;;54.25;40.75;;;;;13.57;32.77;102312.16;5095984;27;45429;-55
2022/03/25 02:37:25;;;;;;;;;67.00;45.25;;;;;13.50;32.89;102305.63;5096708;27;45981;-55
2022/03/25 02:39:54;;;;;;;;;59.25;46.00;;;;;13.51;32.31;102313.53;5095758;27;45387;-56
2022/03/25 02:42:20;;;;;;;;;62.00;44.75;;;;;13.50;33.21;102316.34;5096300;27;46228;-54
2022/03/25 02:44:46;;;;;;;;;63.00;46.75;;;;;13.45;33.05;102311.38;5129490;27;45249;-56
2022/03/25 02:47:11;;;;;;;;;63.25;48.50;;;;;13.37;33.16;102308.47;5096680;27;45389;-60
2022/03/25 02:49:37;;;;;;;;;66.75;44.50;;;;;13.41;32.94;102313.44;5096845;27;45294;-53
2022/03/25 02:52:02;;;;;;;;;60.75;46.50;;;;;13.37;33.32;102312.00;5096548;27;46435;-53
2022/03/25 02:54:27;;;;;;;;;63.00;48.00;;;;;13.33;33.46;102315.91;5096491;27;45406;-54
2022/03/25 02:56:53;;;;;;;;;60.75;46.00;;;;;13.33;33.58;102321.25;5096570;27;45362;-56
2022/03/25 02:59:18;;;;;;;;;58.50;46.25;;;;;13.31;33.08;102319.66;5096545;27;45554;-50
2022/03/25 03:01:44;;;;;;;;;58.00;42.50;;;;;13.22;33.35;102306.06;5096234;27;45999;-57
2022/03/25 03:04:09;;;;;;;;;60.25;45.75;;;;;13.27;33.88;102319.06;5096429;27;45415;-52
2022/03/25 03:06:34;;;;;;;;;60.00;47.00;;;;;13.25;33.66;102318.34;5096421;27;45402;-56
2022/03/25 03:09:00;;;;;;;;;55.75;41.75;;;;;13.22;34.26;102311.41;5096601;27;45441;-51
2022/03/25 03:11:27;;;;;;;;;62.00;46.00;;;;;13.21;33.83;102316.88;5096205;27;45382;-52
2022/03/25 03:13:52;;;;;;;;;58.50;44.00;;;;;13.15;34.01;102318.22;5096093;27;45398;-54
2022/03/25 03:16:19;;;;;;;;;69.00;46.00;;;;;13.15;33.98;102318.22;5096740;27;45295;-51
2022/03/25 03:18:44;;;;;;;;;63.50;47.25;;;;;13.16;33.80;102319.91;5100410;27;45186;-51
2022/03/25 03:21:10;;;;;;;;;65.00;46.75;;;;;13.14;34.12;102315.66;5098313;27;47609;-52
2022/03/25 03:23:35;;;;;;;;;66.25;47.25;;;;;13.12;33.67;102322.97;5099898;27;45439;-53
2022/03/25 03:26:00;;;;;;;;;64.25;47.25;;;;;13.11;34.18;102321.28;5100130;27;45923;-50
2022/03/25 03:28:26;;;;;;;;;60.75;46.50;;;;;13.08;33.68;102319.69;5100213;27;45246;-49
2022/03/25 03:30:51;;;;;;;;;61.25;47.75;;;;;13.04;33.70;102315.56;5099465;27;45374;-48
2022/03/25 03:33:16;;;;;;;;;60.25;46.00;;;;;13.02;34.02;102313.97;5100060;27;45330;-52
2022/03/25 03:35:42;;;;;;;;;64.75;49.50;;;;;13.01;34.05;102312.28;5100510;27;45756;-53
2022/03/25 03:38:08;;;;;;;;;60.50;44.25;;;;;12.97;33.92;102309.84;5100332;27;45455;-55
2022/03/25 03:40:33;;;;;;;;;58.25;44.75;;;;;12.95;33.90;102316.31;5099783;27;46249;-52
2022/03/25 03:42:59;;;;;;;;;64.50;43.75;;;;;12.92;34.39;102314.72;5100187;27;45291;-53
2022/03/25 03:45:24;;;;;;;;;61.50;41.75;;;;;12.89;33.70;102308.78;5099912;27;45378;-50
2022/03/25 03:47:50;;;;;;;;;58.00;41.50;;;;;12.87;34.05;102305.41;5099786;27;45360;-52
2022/03/25 03:50:16;;;;;;;;;66.50;44.75;;;;;12.86;34.73;102306.38;5098955;27;46914;-51
2022/03/25 03:52:42;;;;;;;;;61.00;42.50;;;;;12.84;34.54;102306.50;5100074;27;45301;-53
2022/03/25 03:55:09;;;;;;;;;59.25;45.50;;;;;12.83;34.36;102306.63;5099347;27;45299;-53
2022/03/25 03:57:36;;;;;;;;;63.00;44.00;;;;;12.82;34.46;102311.13;5099728;27;45344;-52
2022/03/25 04:00:07;;;;;;;;;60.00;45.75;;;;;12.79;34.53;102307.84;5099003;27;46428;-51
2022/03/25 04:02:32;;;;;;;;;64.25;45.25;;;;;12.82;35.24;102312.94;5099129;27;45404;-52
2022/03/25 04:04:57;;;;;;;;;68.50;51.25;;;;;12.81;34.81;102312.09;5099440;27;45381;-52
2022/03/25 04:07:23;;;;;;;;;58.00;46.00;;;;;12.77;34.83;102313.31;5099395;27;45485;-57
2022/03/25 04:09:49;;;;;;;;;65.50;48.00;;;;;12.72;34.81;102308.34;5099124;27;47224;-53
2022/03/25 04:12:14;;;;;;;;;64.00;45.25;;;;;12.73;34.94;102311.84;5099160;27;45331;-57
2022/03/25 04:14:39;;;;;;;;;71.00;47.50;;;;;12.71;35.53;102314.63;5098899;27;45593;-53
2022/03/25 04:17:05;;;;;;;;;57.50;47.00;;;;;12.70;35.25;102309.41;5099357;27;45333;-53
2022/03/25 04:19:30;;;;;;;;;59.00;45.50;;;;;12.71;35.14;102308.44;5098772;27;46297;-53
2022/03/25 04:21:56;;;;;;;;;63.50;41.75;;;;;12.69;35.36;102316.59;5098999;27;45228;-52
2022/03/25 04:24:21;;;;;;;;;58.50;44.00;;;;;12.64;35.31;102302.75;5099126;27;45315;-58
2022/03/25 04:26:47;;;;;;;;;60.00;46.25;;;;;12.68;35.08;102314.03;5099078;27;45217;-52
2022/03/25 04:29:12;;;;;;;;;61.00;46.00;;;;;12.66;34.94;102319.50;5098251;27;46086;-55
2022/03/25 04:31:37;;;;;;;;;59.00;43.00;;;;;12.65;34.93;102315.13;5098882;27;45435;-54
2022/03/25 04:34:03;;;;;;;;;62.00;46.25;;;;;12.64;35.64;102316.09;5099062;27;45417;-57
2022/03/25 04:36:29;;;;;;;;;64.25;46.50;;;;;12.64;35.62;102329.47;5099038;27;45347;-51
2022/03/25 04:38:56;;;;;;;;;58.25;42.00;;;;;12.62;35.46;102314.53;5097291;27;46306;-50
2022/03/25 04:41:21;;;;;;;;;60.00;46.00;;;;;12.61;35.62;102321.69;5098385;27;45442;-57
2022/03/25 04:43:47;;;;;;;;;63.00;46.00;;;;;12.60;35.34;102317.31;5098482;27;45258;-49
2022/03/25 04:46:12;;;;;;;;;62.75;47.50;;;;;12.55;35.35;102315.97;5098632;27;45524;-51
2022/03/25 04:48:38;;;;;;;;;58.75;42.00;;;;;12.56;35.20;102325.69;5098158;27;45978;-56
2022/03/25 04:51:03;;;;;;;;;65.25;48.50;;;;;12.54;35.75;102333.81;5098279;27;45632;-55
2022/03/25 04:53:29;;;;;;;;;68.50;47.75;;;;;12.53;35.49;102329.44;5098485;27;45367;-53
2022/03/25 04:55:54;;;;;;;;;57.50;43.75;;;;;12.54;35.66;102336.47;5098761;27;45256;-51
2022/03/25 04:58:20;;;;;;;;;69.50;45.00;;;;;12.54;35.69;102333.81;5098173;27;45354;-52
2022/03/25 05:00:46;;;;;;;;;66.25;46.00;;;;;12.53;35.79;102336.59;5098133;27;45284;-51
2022/03/25 05:03:11;;;;;;;;;60.25;44.25;;;;;12.51;35.57;102344.72;5098368;27;45439;-57
2022/03/25 05:05:37;;;;;;;;;63.00;46.50;;;;;12.45;35.84;102334.53;5098842;27;45208;-55
2022/03/25 05:08:03;;;;;;;;;63.25;48.50;;;;;12.42;36.16;102337.44;5096211;27;45560;-55
2022/03/25 05:10:29;;;;;;;;;61.25;42.50;;;;;12.40;35.65;102337.56;5097699;27;45426;-53
2022/03/25 05:12:54;;;;;;;;;64.25;47.50;;;;;12.41;35.89;102349.09;5098181;27;45458;-58
2022/03/25 05:15:20;;;;;;;;;62.75;46.00;;;;;12.44;35.76;102351.53;5098050;27;45356;-57
2022/03/25 05:17:51;;;;;;;;;64.50;47.50;;;;;12.38;35.74;102344.81;5097943;27;45473;-55
2022/03/25 05:20:18;;;;;;;;;57.75;46.00;;;;;12.38;35.97;102352.84;5097923;27;45435;-54
2022/03/25 05:22:44;;;;;;;;;67.00;48.50;;;;;12.36;36.48;102349.44;5097737;27;45461;-53
2022/03/25 05:25:09;;;;;;;;;65.00;46.75;;;;;12.34;35.72;102356.72;5097841;27;45401;-60
2022/03/25 05:27:48;;;;;;;;;63.75;47.75;;;;;12.32;36.28;102349.81;5097659;27;46203;-57
2022/03/25 05:30:15;;;;;;;;;68.00;48.00;;;;;12.31;36.42;102348.97;5097583;27;45220;-57
2022/03/25 05:32:42;;;;;;;;;65.75;48.00;;;;;12.19;36.08;102333.91;5097926;27;45297;-54
2022/03/25 05:35:09;;;;;;;;;63.25;45.50;;;;;12.24;36.05;102337.91;5098298;27;45407;-54
2022/03/25 05:37:35;;;;;;;;;62.75;47.00;;;;;12.24;36.97;102353.06;5098192;27;47325;-51
2022/03/25 05:40:01;;;;;;;;;60.50;46.00;;;;;12.22;36.01;102350.53;5097854;27;45406;-51
2022/03/25 05:42:26;;;;;;;;;65.00;47.75;;;;;12.18;36.70;102346.38;5097960;27;45387;-51
2022/03/25 05:44:52;;;;;;;;;63.75;42.25;;;;;12.17;37.11;102357.16;5098162;27;45414;-52
2022/03/25 05:47:17;;;;;;;;;63.00;46.50;;;;;12.15;36.81;102351.09;5095369;27;47920;-52
2022/03/25 05:49:42;;;;;;;;;64.00;48.50;;;;;12.15;37.16;102353.78;5098753;27;45323;-53
2022/03/25 05:52:08;;;;;;;;;60.75;47.50;;;;;12.17;37.06;102359.81;5098174;27;45489;-56
2022/03/25 05:54:33;;;;;;;;;66.00;46.50;;;;;12.11;37.16;102347.81;5097632;27;45401;-52
2022/03/25 05:56:59;;;;;;;;;70.75;49.00;;;;;12.15;37.01;102349.28;5097152;27;45503;-51
2022/03/25 05:59:24;;;;;;;;;63.75;47.75;;;;;12.19;36.69;102352.56;5097176;27;45327;-49
2022/03/25 06:01:49;;;;;;;;;62.75;44.00;;;;;12.21;37.25;102358.63;5097097;27;45343;-51
2022/03/25 06:04:15;;;;;;;;;58.00;44.25;;;;;12.20;36.68;102355.09;5097649;27;45262;-52
2022/03/25 06:06:40;;;;;;;;;67.00;47.00;;;;;12.22;37.10;102363.00;5096950;27;45715;-55
2022/03/25 06:09:05;;;;;;;;;59.25;47.00;;;;;12.23;36.98;102370.91;5096055;27;45435;-54
2022/03/25 06:11:31;;;;;;;;;64.00;46.25;;;;;12.23;37.44;102360.22;5130114;27;45335;-52
2022/03/25 06:13:56;;;;;;;;;55.75;45.75;;;;;12.26;37.48;102367.13;5097304;27;45404;-50
2022/03/25 06:16:22;;;;;;;;;63.25;47.25;;;;;12.24;37.39;102361.91;5096766;27;46259;-54
2022/03/25 06:18:47;;;;;;;;;63.75;48.00;;;;;12.31;37.35;102374.81;5096782;27;45445;-52
2022/03/25 06:21:13;;;;;;;;;60.75;45.00;;;;;12.31;37.34;102372.13;5097438;27;45834;-54
2022/03/25 06:23:38;;;;;;;;;71.25;50.00;;;;;12.40;37.64;102374.94;5097077;27;45521;-52
2022/03/25 06:26:05;;;;;;;;;59.50;40.50;;;;;12.42;37.36;102372.97;5096856;27;45375;-49
2022/03/25 06:28:31;;;;;;;;;67.00;49.25;;;;;12.46;37.75;102386.94;5096831;27;45391;-54
2022/03/25 06:30:56;;;;;;;;;66.25;46.00;;;;;12.52;37.83;102385.63;5096734;27;45313;-53
2022/03/25 06:33:22;;;;;;;;;59.25;42.75;;;;;12.52;38.08;102382.97;5097322;27;45327;-57
2022/03/25 06:35:47;;;;;;;;;61.50;44.00;;;;;12.58;37.68;102388.66;5096941;27;46212;-55
2022/03/25 06:38:13;;;;;;;;;65.00;50.00;;;;;12.49;37.23;102370.69;5096860;27;45412;-55
2022/03/25 06:40:38;;;;;;;;;56.75;44.00;;;;;12.62;37.23;102389.28;5097075;27;45338;-51
2022/03/25 06:43:05;;;;;;;;;64.75;47.75;;;;;12.65;37.14;102394.38;5097349;27;45378;-54
2022/03/25 06:45:31;;;;;;;;;64.75;46.50;;;;;12.68;36.79;102392.31;5096659;27;46912;-54
2022/03/25 06:47:57;;;;;;;;;63.75;47.75;;;;;12.72;36.77;102399.13;5096462;27;45304;-52
2022/03/25 06:50:24;;;;;;;;;67.25;47.75;;;;;12.78;36.71;102392.44;5096483;27;45280;-55
2022/03/25 06:52:50;;;;;;;;;66.75;48.75;;;;;12.82;36.89;102395.72;5099661;27;45362;-52
2022/03/25 06:55:17;;;;;;;;;66.00;47.25;;;;;12.89;36.90;102403.13;5100213;27;45451;-52
2022/03/25 06:57:42;;;;;;;;;64.75;43.75;;;;;12.95;36.28;102401.78;5099884;27;45398;-48
2022/03/25 07:00:12;;;;;;;;;67.50;48.00;;;;;12.97;36.18;102398.00;5100177;27;45406;-51
2022/03/25 07:02:41;;;;;;;;;66.25;47.25;;;;;13.02;36.14;102402.13;5100239;27;45530;-52
2022/03/25 07:05:10;;;;;;;;;59.00;46.50;;;;;13.05;36.49;102397.41;5099684;27;46163;-55
2022/03/25 07:07:37;;;;;;;;;63.25;46.00;;;;;13.11;36.45;102409.44;5099943;27;45594;-55
2022/03/25 07:10:04;;;;;;;;;64.00;46.25;;;;;13.12;35.85;102393.28;5099885;27;45495;-58
2022/03/25 07:12:30;;;;;;;;;64.00;45.75;;;;;13.20;35.92;102400.69;5100069;27;45593;-52
2022/03/25 07:14:55;;;;;;;;;67.50;46.50;;;;;13.26;35.99;102399.38;5099621;27;45404;-53
2022/03/25 07:17:20;;;;;;;;;64.25;46.00;;;;;13.32;36.02;102398.88;5103075;27;45424;-55
2022/03/25 07:19:46;;;;;;;;;66.75;50.25;;;;;13.39;35.45;102403.59;5119924;27;45354;-53
2022/03/25 07:22:11;;;;;;;;;66.00;47.25;;;;;13.42;35.67;102405.19;5118752;27;45510;-54
2022/03/25 07:24:36;;;;;;;;;64.50;49.00;;;;;13.46;35.32;102411.97;5117975;27;46008;-55
2022/03/25 07:27:02;;;;;;;;;70.00;49.50;;;;;13.42;35.08;102391.81;5118359;27;45374;-54
2022/03/25 07:29:27;;;;;;;;;61.50;41.75;;;;;13.58;35.16;102413.66;5118726;27;45460;-55
2022/03/25 07:31:53;;;;;;;;;61.50;48.00;;;;;13.63;34.63;102415.94;5118224;27;45473;-55
2022/03/25 07:34:19;;;;;;;;;63.00;49.00;;;;;13.65;34.78;102411.31;5118625;27;45535;-53
2022/03/25 07:36:44;;;;;;;;;64.75;48.00;;;;;13.77;35.14;102420.16;5120029;27;45463;-57
2022/03/25 07:39:09;;;;;;;;;66.75;48.75;;;;;13.88;34.47;102425.47;5119865;27;45524;-52
2022/03/25 07:41:35;;;;;;;;;68.00;48.25;;;;;14.03;34.50;102423.31;5120428;27;45307;-56
2022/03/25 07:44:00;;;;;;;;;65.00;48.25;;;;;14.12;34.39;102431.47;5119642;27;45310;-57
2022/03/25 07:46:27;;;;;;;;;67.50;47.75;;;;;14.28;34.38;102427.47;5119776;27;45515;-56
2022/03/25 07:48:52;;;;;;;;;61.00;45.75;;;;;14.41;34.10;102428.13;5120170;27;45262;-54
2022/03/25 07:51:19;;;;;;;;;66.50;48.75;;;;;14.48;34.13;102429.31;5119651;27;45527;-53
2022/03/25 07:53:44;;;;;;;;;65.25;48.50;;;;;14.55;33.78;102427.84;5119496;27;46231;-54
2022/03/25 07:56:11;;;;;;;;;67.00;47.25;;;;;14.59;33.64;102429.28;5119858;27;45536;-56
2022/03/25 07:58:36;;;;;;;;;60.25;42.00;;;;;14.59;33.46;102423.91;5120196;27;45319;-52
2022/03/25 08:01:03;;;;;;;;;72.75;50.75;;;;;14.63;33.54;102436.06;5119868;27;45515;-53
2022/03/25 08:03:28;;;;;;;;;69.75;50.75;;;;;14.63;33.25;102430.72;5119129;27;45379;-54
2022/03/25 08:05:54;;;;;;;;;63.00;49.00;;;;;14.67;33.29;102432.16;5119324;27;45254;-51
2022/03/25 08:08:20;;;;;;;;;72.00;51.75;;;;;14.71;33.24;102436.25;5119857;27;45712;-55
2022/03/25 08:10:47;;;;;;;;;68.00;51.00;;;;;14.81;33.52;102444.34;5119518;27;45346;-54
2022/03/25 08:13:12;;;;;;;;;76.50;50.50;;;;;14.85;33.11;102424.34;5119692;27;46278;-52
2022/03/25 08:15:38;;;;;;;;;67.25;51.00;;;;;15.04;32.83;102436.13;5119490;27;45299;-53
2022/03/25 08:18:07;;;;;;;;;64.50;49.00;;;;;15.17;32.79;102442.97;5119532;27;45359;-52
2022/03/25 08:20:37;;;;;;;;;66.00;50.00;;;;;15.32;31.88;102434.53;5119321;27;45365;-53
2022/03/25 08:23:04;;;;;;;;;59.75;47.25;;;;;15.46;32.14;102431.47;5118839;27;45642;-52
2022/03/25 08:28:15;;;;;;;;;22.00;10.25;;;;;16.94;29.81;102430.31;5119143;27;45397;-57
2022/03/25 08:30:42;;;;;;;;;64.75;47.25;;;;;17.32;29.88;102439.19;5119023;27;45414;-51
2022/03/25 08:33:08;;;;;;;;;69.75;48.00;;;;;17.26;29.53;102447.84;5118774;27;46242;-56
2022/03/25 08:35:35;;;;;;;;;66.75;49.00;;;;;17.34;29.81;102443.44;5119093;27;45446;-57
2022/03/25 08:38:01;;;;;;;;;61.25;46.75;;;;;17.46;29.49;102436.84;5119155;27;45354;-54
2022/03/25 08:40:29;;;;;;;;;63.00;48.00;;;;;17.86;28.47;102445.53;5119116;27;45372;-54
2022/03/25 08:42:54;;;;;;;;;55.25;44.00;;;;;19.73;26.95;102427.00;5118860;27;46171;-53
2022/03/25 08:45:20;;;;;;;;;68.25;48.00;;;;;21.41;24.86;102434.41;5117329;27;45378;-53
2022/03/25 08:47:48;;;;;;;;;63.00;48.00;;;;;22.68;23.28;102427.47;5118466;27;45480;-57
2022/03/25 08:50:14;;;;;;;;;63.75;48.00;;;;;23.71;22.04;102429.25;5119089;27;45767;-55
2022/03/25 08:52:41;;;;;;;;;59.67;44.00;;;;;24.56;21.93;102435.69;5118520;27;46176;-53
2022/03/25 08:55:09;;;;;;;;;60.67;44.00;;;;;25.23;20.84;102428.78;5118745;27;45354;-52
2022/03/25 08:57:34;;;;;;;;;67.33;49.33;;;;;25.90;19.98;102430.66;5117521;27;45372;-53
2022/03/25 09:00:00;;;;;;;;;63.67;48.67;;;;;26.31;19.93;102432.38;5118432;27;45345;-54
2022/03/25 09:02:26;;;;;;;;;61.33;47.00;;;;;26.74;19.69;102430.03;5118528;27;45505;-54
2022/03/25 09:04:51;;;;;;;;;58.00;43.00;;;;;27.23;18.90;102425.91;5118240;27;45482;-55
2022/03/25 09:07:17;;;;;;;;;68.00;48.33;;;;;27.54;18.60;102425.13;5118631;27;45417;-54
2022/03/25 09:09:42;;;;;;;;;67.33;47.33;;;;;28.07;17.17;102421.22;5118777;27;45303;-55
2022/03/25 09:12:08;;;;;;;;;62.00;47.67;;;;;28.60;17.42;102432.53;5118271;27;46178;-53
2022/03/25 09:14:34;;;;;;;;;60.33;46.00;;;;;28.77;17.43;102427.31;5117402;27;45417;-53
2022/03/25 09:17:00;;;;;;;;;64.00;47.33;;;;;28.87;17.70;102435.00;5118541;27;45224;-59
2022/03/25 09:19:25;;;;;;;;;60.67;45.67;;;;;28.64;17.37;102429.34;5118650;27;45207;-54
2022/03/25 09:21:51;;;;;;;;;65.00;49.00;;;;;28.40;17.05;102426.44;5118274;27;45412;-54
2022/03/25 09:24:16;;;;;;;;;64.67;49.33;;;;;28.39;16.96;102422.00;5118105;27;45294;-55
2022/03/25 09:26:41;;;;;;;;;60.67;47.00;;;;;28.48;17.17;102423.38;5118062;27;45607;-56
2022/03/25 09:29:07;;;;;;;;;63.67;47.00;;;;;28.66;16.93;102424.50;5118444;27;45818;-55
2022/03/25 09:31:33;;;;;;;;;54.00;44.00;;;;;28.77;18.84;102415.50;5118163;27;46929;-54
2022/03/25 09:35:08;;;;;;;;;62.00;48.33;;;;;28.87;16.62;102393.94;5117668;27;45495;-56
2022/03/25 09:36:44;;;;;;;;;63.33;49.00;;;;;29.04;16.92;102407.88;5117843;27;45389;-55
2022/03/25 09:39:09;;;;;;;;;67.67;50.33;;;;;28.97;17.51;102420.81;5118084;27;45384;-56
2022/03/25 09:41:36;;;;;;;;;64.00;46.33;;;;;28.97;18.96;102418.06;5117824;27;46687;-55
2022/03/25 09:44:03;;;;;;;;;71.67;48.33;;;;;28.94;18.00;102408.34;5117837;27;45450;-53
2022/03/25 09:46:28;;;;;;;;;66.00;47.33;;;;;29.00;18.03;102410.22;5118221;27;45363;-55
2022/03/25 09:48:54;;;;;;;;;67.00;47.00;;;;;29.23;16.34;102408.66;5117483;27;45417;-52
2022/03/25 09:51:19;;;;;;;;;65.33;49.00;;;;;29.45;16.69;102409.00;5117541;27;46033;-54
2022/03/25 09:53:47;;;;;;;;;65.67;50.00;;;;;29.56;17.00;102422.78;5117528;27;45366;-54
2022/03/25 09:56:12;;;;;;;;;65.33;48.67;;;;;29.63;16.93;102417.22;5118039;27;45244;-53
2022/03/25 09:58:38;;;;;;;;;61.33;48.33;;;;;29.95;16.53;102420.50;5118234;27;45390;-53
2022/03/25 10:01:03;;;;;;;;;67.33;49.67;;;;;31.14;15.61;102419.41;5117184;27;46302;-52
2022/03/25 10:03:36;;;;;;;;;60.33;46.00;;;;;32.94;14.26;102428.53;5117408;27;45459;-53
2022/03/25 10:06:04;;;;;;;;;64.00;47.00;;;;;34.33;14.09;102425.25;5117596;27;45416;-53
2022/03/25 10:08:30;;;;;;;;;58.00;45.33;;;;;35.27;13.46;102415.22;5117509;27;45370;-53
2022/03/25 10:10:56;;;;;;;;;65.00;46.00;;;;;36.11;11.27;102414.78;5117050;27;46256;-55
2022/03/25 10:13:21;;;;;;;;;64.00;48.33;;;;;36.90;11.18;102396.56;5117014;27;45450;-54
2022/03/25 10:15:47;;;;;;;;;63.00;48.33;;;;;37.67;11.25;102410.00;5117401;27;45450;-53
2022/03/25 10:18:12;;;;;;;;;59.25;45.00;;;;;38.33;11.59;102405.81;5117579;27;45391;-54
2022/03/25 10:20:40;;;;;;;;;63.50;46.50;;;;;38.95;10.15;102401.19;5117001;27;46114;-54
2022/03/25 10:23:14;;;;;;;;;45.25;33.25;;;;;39.56;10.35;102399.47;5117034;27;45405;-54
2022/03/25 10:25:41;;;;;;;;;61.50;49.00;;;;;40.09;9.61;102387.97;5117301;27;45330;-53
2022/03/25 10:28:31;;;;;;;;;62.50;47.75;;;;;40.39;9.37;102386.56;5117472;27;45517;-54
2022/03/25 10:31:02;;;;;;;;;61.00;46.75;;;;;40.83;9.99;102396.25;5117114;27;45426;-54
2022/03/25 10:33:36;;;;;;;;;61.00;46.00;;;;;40.94;9.72;102392.13;5117093;27;45521;-54
2022/03/25 10:36:15;;;;;;;;;62.00;47.25;;;;;41.13;9.90;102392.84;5117342;27;45394;-56
2022/03/25 10:38:55;;;;;;;;;58.75;44.50;;;;;41.65;8.88;102389.63;5117591;27;45445;-56
2022/03/25 10:41:23;;;;;;;;;60.50;47.50;;;;;41.97;8.46;102387.69;5117144;27;45307;-54
2022/03/25 10:44:08;;;;;;;;;51.80;43.20;;;;;42.42;8.78;102380.00;5116976;27;45201;-53
2022/03/25 10:46:45;;;;;;;;;62.00;48.75;;;;;43.05;7.91;102383.47;5116848;27;45291;-53
2022/03/25 10:49:16;;;;;;;;;55.00;42.25;;;;;43.05;9.20;102386.28;5116713;27;45472;-55
2022/03/25 10:51:52;;;;;;;;;55.25;46.00;;;;;43.25;7.99;102387.59;5116718;27;45307;-53
2022/03/25 10:54:23;;;;;;;;;61.00;47.00;;;;;43.37;7.54;102384.97;5116939;27;45298;-54
2022/03/25 10:56:57;;;;;;;;;61.80;46.00;;;;;43.44;7.74;102384.44;5116766;27;45419;-53
2022/03/25 10:59:25;;;;;;;;;62.80;47.20;;;;;43.62;8.31;102377.69;5116961;27;45424;-54
2022/03/25 11:01:57;;;;;;;;;59.80;44.60;;;;;43.72;7.12;102382.94;5116449;27;46273;-55
2022/03/25 11:04:24;;;;;;;;;62.80;47.00;;;;;43.75;7.20;102384.25;5116516;27;45504;-53
2022/03/25 11:06:50;;;;;;;;;44.80;36.20;;;;;43.96;7.02;102381.59;5116603;27;45409;-51
2022/03/25 11:09:17;;;;;;;;;56.00;45.00;;;;;43.85;6.81;102381.09;5116969;27;45321;-53